createdAt,value
2023-03-04T00:01:48.798Z,-3.07
2023-03-04T00:07:11.401Z,-2.87
2023-03-04T00:12:33.777Z,-2.87
2023-03-04T00:17:56.079Z,-2.82
2023-03-04T00:23:18.251Z,-2.70
2023-03-04T00:28:41.055Z,-2.63
2023-03-04T00:34:03.065Z,-2.64
2023-03-04T00:39:25.266Z,-2.72
2023-03-04T00:44:47.508Z,-2.76
2023-03-04T00:50:10.474Z,-2.86
2023-03-04T00:55:33.123Z,-2.68
2023-03-04T01:00:55.044Z,-2.76
2023-03-04T01:06:17.315Z,-2.74
2023-03-04T01:11:39.884Z,-2.87
2023-03-04T01:17:02.084Z,-2.92
2023-03-04T01:22:24.324Z,-2.93
2023-03-04T01:27:46.567Z,-2.97
2023-03-04T01:33:08.944Z,-2.86
2023-03-04T01:38:31.445Z,-2.99
2023-03-04T01:43:55.092Z,-2.98
2023-03-04T01:49:18.164Z,-3.08
2023-03-04T01:54:42.274Z,-2.97
2023-03-04T02:00:20.328Z,-2.79
2023-03-04T02:05:46.510Z,-2.88
2023-03-04T02:11:11.487Z,-2.90
2023-03-04T02:16:33.973Z,-2.81
2023-03-04T02:21:56.092Z,-2.84
2023-03-04T02:27:20.376Z,-2.84
2023-03-04T02:32:44.407Z,-2.71
2023-03-04T02:38:06.770Z,-2.65
2023-03-04T02:43:28.862Z,-2.68
2023-03-04T02:48:53.946Z,-2.66
2023-03-04T02:54:22.476Z,-2.71
2023-03-04T02:59:45.303Z,-2.69
2023-03-04T03:05:13.938Z,-2.73
2023-03-04T03:10:36.232Z,-2.60
2023-03-04T03:15:59.199Z,-2.69
2023-03-04T03:21:21.116Z,-2.86
2023-03-04T03:26:42.934Z,-2.77
2023-03-04T03:32:05.249Z,-2.70
2023-03-04T03:37:27.226Z,-2.85
2023-03-04T03:42:50.000Z,-2.92
2023-03-04T03:48:12.587Z,-2.86
2023-03-04T03:53:34.389Z,-2.79
2023-03-04T03:58:56.526Z,-2.82
2023-03-04T04:04:18.411Z,-2.93
2023-03-04T04:09:40.771Z,-2.85
2023-03-04T04:15:02.526Z,-2.87
2023-03-04T04:20:26.754Z,-2.86
2023-03-04T04:25:48.683Z,-2.94
2023-03-04T04:31:11.252Z,-2.87
2023-03-04T04:36:32.960Z,-2.93
2023-03-04T04:41:55.167Z,-2.79
2023-03-04T04:47:16.828Z,-2.87
2023-03-04T04:52:41.081Z,-2.89
2023-03-04T04:58:03.167Z,-2.80
2023-03-04T05:03:53.934Z,-2.77
2023-03-04T05:09:16.302Z,-2.50
2023-03-04T05:14:38.925Z,-2.39
2023-03-04T05:20:01.261Z,-2.07
2023-03-04T05:25:24.895Z,-2.10
2023-03-04T05:30:47.609Z,-2.10
2023-03-04T05:36:10.026Z,-2.16
2023-03-04T05:41:32.338Z,-1.98
2023-03-04T05:46:54.504Z,-1.92
2023-03-04T05:52:18.553Z,-1.83
2023-03-04T05:57:40.507Z,-1.71
2023-03-04T06:03:02.362Z,-1.27
2023-03-04T06:08:24.708Z,-0.77
2023-03-04T06:13:47.005Z,-0.42
2023-03-04T06:19:09.284Z,-0.59
2023-03-04T06:24:31.273Z,-0.76
2023-03-04T06:29:54.004Z,-0.71
2023-03-04T06:35:17.643Z,-0.73
2023-03-04T06:40:39.866Z,-0.27
2023-03-04T06:46:01.818Z,-0.33
2023-03-04T06:51:24.148Z,-0.67
2023-03-04T06:56:46.190Z,-0.79
2023-03-04T07:02:12.952Z,-0.87
2023-03-04T07:07:37.829Z,-0.79
2023-03-04T07:12:59.859Z,-1.05
2023-03-04T07:18:21.898Z,-0.96
2023-03-04T07:23:45.271Z,-0.98
2023-03-04T07:29:10.212Z,-0.75
2023-03-04T07:34:35.681Z,-0.69
2023-03-04T07:39:57.731Z,-0.85
2023-03-04T07:45:20.960Z,-0.59
2023-03-04T07:50:43.123Z,-0.30
2023-03-04T07:56:06.923Z,-0.07
2023-03-04T08:01:34.971Z,0.28
2023-03-04T08:13:42.369Z,1.23
2023-03-04T08:19:07.290Z,1.40
2023-03-04T08:24:29.448Z,1.87
2023-03-04T08:29:51.807Z,1.87
2023-03-04T08:35:14.301Z,1.76
2023-03-04T08:40:36.274Z,1.72
2023-03-04T08:45:58.921Z,2.00
2023-03-04T08:51:21.368Z,2.12
2023-03-04T08:56:44.022Z,2.25
2023-03-04T09:02:09.308Z,2.22
2023-03-04T09:07:33.765Z,2.55
2023-03-04T09:12:56.286Z,2.87
2023-03-04T09:18:19.945Z,2.99
2023-03-04T09:23:50.520Z,2.71
2023-03-04T09:29:12.633Z,2.60
2023-03-04T09:34:34.486Z,2.28
2023-03-04T09:39:56.675Z,2.09
2023-03-04T09:45:22.708Z,2.02
2023-03-04T09:51:00.284Z,2.20
2023-03-04T09:56:23.405Z,2.27
2023-03-04T10:01:53.028Z,2.33
2023-03-04T10:07:22.002Z,2.24
2023-03-04T10:12:47.813Z,2.19
2023-03-04T10:18:34.275Z,2.28
2023-03-04T10:23:59.655Z,2.28
2023-03-04T10:29:25.216Z,2.36
2023-03-04T10:34:47.702Z,2.61
2023-03-04T10:40:28.142Z,2.65
2023-03-04T10:45:55.225Z,2.52
2023-03-04T10:51:29.287Z,2.53
2023-03-04T10:56:59.773Z,2.58
2023-03-04T11:02:29.662Z,2.29
2023-03-04T11:08:00.759Z,1.85
2023-03-04T11:13:27.383Z,1.59
2023-03-04T11:18:53.616Z,1.45
2023-03-04T11:24:29.081Z,1.16
2023-03-04T11:30:36.030Z,1.02
2023-03-04T11:36:29.543Z,1.31
2023-03-04T11:42:01.651Z,1.02
2023-03-04T11:48:04.739Z,1.13
2023-03-04T11:53:54.449Z,1.35
2023-03-04T11:59:44.966Z,1.53
2023-03-04T12:05:23.234Z,1.55
2023-03-04T12:11:05.582Z,1.99
2023-03-04T12:17:08.814Z,2.19
2023-03-04T12:22:36.363Z,1.98
2023-03-04T12:28:19.245Z,1.97
2023-03-04T12:33:56.299Z,2.09
2023-03-04T12:39:52.106Z,1.80
2023-03-04T12:45:20.946Z,1.74
2023-03-04T12:50:49.422Z,1.22
2023-03-04T12:56:24.403Z,1.04
2023-03-04T13:02:02.837Z,1.04
2023-03-04T13:07:38.153Z,0.94
2023-03-04T13:13:01.608Z,0.96
2023-03-04T13:18:37.011Z,0.90
2023-03-04T13:24:22.692Z,0.82
2023-03-04T13:29:44.951Z,0.68
2023-03-04T13:35:47.417Z,0.71
2023-03-04T13:41:46.424Z,0.63
2023-03-04T13:47:16.667Z,0.59
2023-03-04T13:52:40.221Z,0.54
2023-03-04T13:58:03.957Z,0.44
2023-03-04T14:03:31.423Z,0.42
2023-03-04T14:08:55.031Z,0.23
2023-03-04T14:14:27.605Z,0.32
2023-03-04T14:19:53.615Z,0.31
2023-03-04T14:25:24.231Z,0.42
2023-03-04T14:30:58.014Z,0.29
2023-03-04T14:36:23.976Z,0.13
2023-03-04T14:41:48.667Z,0.07
2023-03-04T14:47:19.574Z,-0.02
2023-03-04T14:52:47.564Z,-0.14
2023-03-04T14:58:24.660Z,-0.07
2023-03-04T15:04:12.229Z,-0.08
2023-03-04T15:09:36.888Z,-0.09
2023-03-04T15:15:01.540Z,-0.18
2023-03-04T15:20:28.283Z,-0.17
2023-03-04T15:26:02.407Z,-0.25
2023-03-04T15:31:28.756Z,-0.33
2023-03-04T15:36:51.661Z,-0.43
2023-03-04T15:42:15.065Z,-0.42
2023-03-04T15:47:37.602Z,-0.37
2023-03-04T15:53:02.862Z,-0.45
2023-03-04T15:58:25.505Z,-0.58
2023-03-04T16:10:02.953Z,-0.72
2023-03-04T16:15:28.455Z,-0.73
2023-03-04T16:20:51.921Z,-0.63
2023-03-04T16:26:17.983Z,-0.58
2023-03-04T16:31:39.978Z,-0.71
2023-03-04T16:37:13.541Z,-0.64
2023-03-04T16:42:36.032Z,-0.78
2023-03-04T16:47:58.764Z,-0.84
2023-03-04T16:53:32.649Z,-0.73
2023-03-04T16:58:57.525Z,-0.86
2023-03-04T17:04:19.990Z,-0.96
2023-03-04T17:09:43.133Z,-1.07
2023-03-04T17:15:05.651Z,-1.09
2023-03-04T17:20:27.767Z,-1.34
2023-03-04T17:25:57.825Z,-1.35
2023-03-04T17:31:21.723Z,-1.45
2023-03-04T17:36:43.550Z,-1.54
2023-03-04T17:42:06.587Z,-1.68
2023-03-04T17:47:28.629Z,-1.78
2023-03-04T17:52:50.436Z,-1.94
2023-03-04T17:58:12.422Z,-1.90
2023-03-04T18:03:34.937Z,-1.92
2023-03-04T18:08:57.772Z,-1.76
2023-03-04T18:14:20.242Z,-1.72
2023-03-04T18:19:43.085Z,-1.78
2023-03-04T18:25:11.247Z,-1.82
2023-03-04T18:30:34.726Z,-1.92
2023-03-04T18:36:05.894Z,-1.71
2023-03-04T18:41:28.397Z,-1.73
2023-03-04T18:46:56.927Z,-1.72
2023-03-04T18:52:19.332Z,-1.60
2023-03-04T18:57:48.436Z,-1.56
2023-03-04T19:03:13.878Z,-1.65
2023-03-04T19:08:36.740Z,-1.49
2023-03-04T19:13:59.056Z,-1.55
2023-03-04T19:19:21.787Z,-1.58
2023-03-04T19:24:43.910Z,-1.65
2023-03-04T19:30:07.456Z,-1.57
2023-03-04T19:35:30.486Z,-1.68
2023-03-04T19:40:52.697Z,-1.61
2023-03-04T19:46:15.191Z,-1.67
2023-03-04T19:51:37.686Z,-1.59
2023-03-04T19:56:59.985Z,-1.63
2023-03-04T20:02:22.166Z,-1.68
2023-03-04T20:07:44.588Z,-1.71
2023-03-04T20:13:11.325Z,-1.60
2023-03-04T20:18:33.822Z,-1.76
2023-03-04T20:23:56.302Z,-1.64
2023-03-04T20:29:19.378Z,-1.71
2023-03-04T20:34:41.821Z,-1.80
2023-03-04T20:40:07.056Z,-1.94
2023-03-04T20:45:29.416Z,-1.91
2023-03-04T20:50:51.602Z,-1.85
2023-03-04T20:56:13.832Z,-1.79
2023-03-04T21:01:40.831Z,-1.90
2023-03-04T21:07:03.460Z,-1.77
2023-03-04T21:12:26.488Z,-1.83
2023-03-04T21:17:50.324Z,-1.95
2023-03-04T21:23:12.652Z,-2.05
2023-03-04T21:28:34.754Z,-2.04
2023-03-04T21:34:00.671Z,-1.86
2023-03-04T21:39:24.867Z,-1.97
2023-03-04T21:44:50.155Z,-2.02
2023-03-04T21:50:13.074Z,-1.87
2023-03-04T21:55:35.140Z,-1.84
2023-03-04T22:00:58.646Z,-1.78
2023-03-04T22:06:23.231Z,-1.74
2023-03-04T22:11:46.032Z,-1.73
2023-03-04T22:17:08.382Z,-1.82
2023-03-04T22:22:31.664Z,-1.92
2023-03-04T22:27:53.649Z,-1.83
2023-03-04T22:33:16.085Z,-1.86
2023-03-04T22:38:39.142Z,-1.86
2023-03-04T22:44:01.686Z,-1.89
2023-03-04T22:49:23.957Z,-1.84
2023-03-04T22:54:46.435Z,-1.90
2023-03-04T23:00:19.410Z,-2.05
2023-03-04T23:05:41.858Z,-2.28
2023-03-04T23:11:41.276Z,-2.12
2023-03-04T23:17:03.393Z,-2.19
2023-03-04T23:22:25.358Z,-2.44
2023-03-04T23:27:47.419Z,-2.31
2023-03-04T23:33:09.748Z,-2.42
2023-03-04T23:38:32.094Z,-2.52
2023-03-04T23:43:56.137Z,-2.69
2023-03-04T23:49:18.661Z,-2.70
2023-03-04T23:54:40.850Z,-2.47
